Time;durP1;ratioP1;P1;durP2;ratioP2;P2;SDS_P1;SDS_P2;PMS_P1;PMS_P2;Temp;Humidity;BMP_temperature;BMP_pressure;BME280_temperature;BME280_humidity;BME280_pressure;Samples;Min_cycle;Max_cycle;Signal;HPM_P1;HPM_P2
2023/01/15 00:01:28;;;;;;;;;;;;;;;;;;6215730;23;20345;-81
2023/01/15 00:03:54;;;;;;;;;;;;;;;;;;6192921;23;19912;-81
2023/01/15 00:06:19;;;;;;;;;;;;;;;;;;6216191;23;19918;-82
2023/01/15 00:08:45;;;;;;;;;;;;;;;;;;6212514;23;20230;-81
2023/01/15 00:11:11;;;;;;;;;;;;;;;;;;6212577;23;19955;-80
2023/01/15 00:13:37;;;;;;;;;;;;;;;;;;6213837;23;19924;-81
2023/01/15 00:16:02;;;;;;;;;;;;;;;;;;6212442;23;20133;-81
2023/01/15 00:18:28;;;;;;;;;;;;;;;;;;6216355;23;19927;-82
2023/01/15 00:20:54;;;;;;;;;;;;;;;;;;6194380;23;19934;-80
2023/01/15 00:27:37;;;;;;;;;;;;;;;;;;6229380;23;19916;-82
2023/01/15 00:28:49;;;;;;;;;;;;;;;;;;6207922;23;19990;-79
2023/01/15 00:31:15;;;;;;;;;;;;;;;;;;6228347;23;19912;-80
2023/01/15 00:33:41;;;;;;;;;;;;;;;;;;6198401;23;20270;-80
2023/01/15 00:36:08;;;;;;;;;;;;;;;;;;6216791;23;19946;-80
2023/01/15 00:38:33;;;;;;;;;;;;;;;;;;6192358;23;19920;-82
2023/01/15 00:40:59;;;;;;;;;;;;;;;;;;6222069;23;19916;-80
2023/01/15 00:43:25;;;;;;;;;;;;;;;;;;6221251;23;20319;-81
2023/01/15 00:45:50;;;;;;;;;;;;;;;;;;6219012;23;20260;-82
2023/01/15 00:48:16;;;;;;;;;;;;;;;;;;6220304;23;19911;-81
2023/01/15 00:50:42;;;;;;;;;;;;;;;;;;6216548;23;19916;-80
2023/01/15 00:53:08;;;;;;;;;;;;;;;;;;6212490;23;19919;-78
2023/01/15 00:55:33;;;;;;;;;;;;;;;;;;6210813;23;19911;-79
2023/01/15 00:57:59;;;;;;;;;;;;;;;;;;6212185;23;19916;-81
2023/01/15 01:00:25;;;;;;;;;;;;;;;;;;6167245;23;20323;-81
2023/01/15 01:02:50;;;;;;;;;;;;;;;;;;6215101;23;19965;-82
2023/01/15 01:05:16;;;;;;;;;;;;;;;;;;6216275;23;19939;-81
2023/01/15 01:07:42;;;;;;;;;;;;;;;;;;6213900;23;20304;-82
2023/01/15 01:10:08;;;;;;;;;;;;;;;;;;6197340;23;19935;-82
2023/01/15 01:12:36;;;;;;;;;;;;;;;;;;6222862;23;19912;-83
2023/01/15 01:15:01;;;;;;;;;;;;;;;;;;6222203;23;20406;-82
2023/01/15 01:17:28;;;;;;;;;;;;;;;;;;6199267;23;19911;-82
2023/01/15 01:19:53;;;;;;;;;;;;;;;;;;6196584;23;19997;-81
2023/01/15 01:22:19;;;;;;;;;;;;;;;;;;6217412;23;19919;-81
2023/01/15 01:24:45;;;;;;;;;;;;;;;;;;6220177;23;20317;-81
2023/01/15 01:27:10;;;;;;;;;;;;;;;;;;6222405;23;19912;-82
2023/01/15 01:29:37;;;;;;;;;;;;;;;;;;6192974;23;19978;-81
2023/01/15 01:32:03;;;;;;;;;;;;;;;;;;6216227;23;19927;-79
2023/01/15 01:34:29;;;;;;;;;;;;;;;;;;6215606;23;19916;-82
2023/01/15 01:36:55;;;;;;;;;;;;;;;;;;6216041;23;19912;-81
2023/01/15 01:39:20;;;;;;;;;;;;;;;;;;6212968;23;19944;-79
2023/01/15 01:41:46;;;;;;;;;;;;;;;;;;6212434;23;19912;-79
2023/01/15 01:44:13;;;;;;;;;;;;;;;;;;6212203;23;20273;-80
2023/01/15 01:46:39;;;;;;;;;;;;;;;;;;6211845;23;19947;-81
2023/01/15 01:49:05;;;;;;;;;;;;;;;;;;6210632;23;19912;-81
2023/01/15 01:51:31;;;;;;;;;;;;;;;;;;6211596;23;20018;-80
2023/01/15 01:53:56;;;;;;;;;;;;;;;;;;6210950;23;20337;-81
2023/01/15 01:56:23;;;;;;;;;;;;;;;;;;6213658;23;19916;-79
2023/01/15 01:58:48;;;;;;;;;;;;;;;;;;6211602;23;19927;-80
2023/01/15 02:01:14;;;;;;;;;;;;;;;;;;6218267;23;19912;-82
2023/01/15 02:03:39;;;;;;;;;;;;;;;;;;6194156;23;19922;-80
2023/01/15 02:06:05;;;;;;;;;;;;;;;;;;6195166;23;19912;-82
2023/01/15 02:08:31;;;;;;;;;;;;;;;;;;6215364;23;19911;-80
2023/01/15 02:10:57;;;;;;;;;;;;;;;;;;6209723;23;19912;-80
2023/01/15 02:13:29;;;;;;;;;;;;;;;;;;6210507;23;19966;-80
2023/01/15 02:15:54;;;;;;;;;;;;;;;;;;6209890;23;19912;-80
2023/01/15 02:18:20;;;;;;;;;;;;;;;;;;6210015;23;20269;-80
2023/01/15 02:20:46;;;;;;;;;;;;;;;;;;6209379;23;19919;-79
2023/01/15 02:23:12;;;;;;;;;;;;;;;;;;6209093;23;19923;-79
2023/01/15 02:25:38;;;;;;;;;;;;;;;;;;6209482;23;19912;-79
2023/01/15 02:28:04;;;;;;;;;;;;;;;;;;6210280;23;19912;-81
2023/01/15 02:30:31;;;;;;;;;;;;;;;;;;6219302;23;19947;-82
2023/01/15 02:32:57;;;;;;;;;;;;;;;;;;6187777;23;19974;-81
2023/01/15 02:35:23;;;;;;;;;;;;;;;;;;6186300;23;19912;-80
2023/01/15 02:37:49;;;;;;;;;;;;;;;;;;6210407;23;19926;-80
2023/01/15 02:40:15;;;;;;;;;;;;;;;;;;6186087;23;19920;-80
2023/01/15 02:42:40;;;;;;;;;;;;;;;;;;6186646;23;19912;-81
2023/01/15 02:45:06;;;;;;;;;;;;;;;;;;6212417;23;19916;-79
2023/01/15 02:47:32;;;;;;;;;;;;;;;;;;6210252;23;19927;-81
2023/01/15 02:49:57;;;;;;;;;;;;;;;;;;6208865;23;20292;-78
2023/01/15 02:52:24;;;;;;;;;;;;;;;;;;6183383;23;20002;-78
2023/01/15 02:54:49;;;;;;;;;;;;;;;;;;6210379;23;19939;-79
2023/01/15 02:57:15;;;;;;;;;;;;;;;;;;6183934;23;19919;-77
2023/01/15 02:59:44;;;;;;;;;;;;;;;;;;6208586;23;19995;-79
2023/01/15 03:02:10;;;;;;;;;;;;;;;;;;6184915;23;19935;-76
2023/01/15 03:04:36;;;;;;;;;;;;;;;;;;6208821;23;19911;-78
2023/01/15 03:07:01;;;;;;;;;;;;;;;;;;6210535;23;19908;-78
2023/01/15 03:09:29;;;;;;;;;;;;;;;;;;6208929;23;19975;-80
2023/01/15 03:11:55;;;;;;;;;;;;;;;;;;6211289;23;19938;-79
2023/01/15 03:14:21;;;;;;;;;;;;;;;;;;6211274;23;20368;-80
2023/01/15 03:16:46;;;;;;;;;;;;;;;;;;6185393;23;20368;-79
2023/01/15 03:19:12;;;;;;;;;;;;;;;;;;6214885;23;19993;-80
2023/01/15 03:21:38;;;;;;;;;;;;;;;;;;6217457;23;20372;-80
2023/01/15 03:24:03;;;;;;;;;;;;;;;;;;6192757;23;19912;-80
2023/01/15 03:26:29;;;;;;;;;;;;;;;;;;6187917;23;19935;-79
2023/01/15 03:28:56;;;;;;;;;;;;;;;;;;6185486;23;19912;-78
2023/01/15 03:31:23;;;;;;;;;;;;;;;;;;6209136;23;19916;-78
2023/01/15 03:33:48;;;;;;;;;;;;;;;;;;6208937;23;20002;-79
2023/01/15 03:36:18;;;;;;;;;;;;;;;;;;6185639;23;19912;-80
2023/01/15 03:38:49;;;;;;;;;;;;;;;;;;6210347;23;19919;-80
2023/01/15 03:41:33;;;;;;;;;;;;;;;;;;6212457;23;20333;-78
2023/01/15 03:43:59;;;;;;;;;;;;;;;;;;6160488;23;19973;-80
2023/01/15 03:46:25;;;;;;;;;;;;;;;;;;6210753;23;19958;-78
2023/01/15 03:48:51;;;;;;;;;;;;;;;;;;6185441;23;19934;-77
2023/01/15 03:51:18;;;;;;;;;;;;;;;;;;6210401;23;19912;-79
2023/01/15 03:53:44;;;;;;;;;;;;;;;;;;6210065;23;19994;-77
2023/01/15 03:56:10;;;;;;;;;;;;;;;;;;6210616;23;19940;-78
2023/01/15 03:58:41;;;;;;;;;;;;;;;;;;6209815;23;19919;-77
2023/01/15 04:01:09;;;;;;;;;;;;;;;;;;6210833;23;20265;-79
2023/01/15 04:03:35;;;;;;;;;;;;;;;;;;6211192;23;19916;-80
2023/01/15 04:06:00;;;;;;;;;;;;;;;;;;6213682;23;19923;-80
2023/01/15 04:08:27;;;;;;;;;;;;;;;;;;6188004;23;19912;-80
2023/01/15 04:10:53;;;;;;;;;;;;;;;;;;6212941;23;20264;-79
2023/01/15 04:13:19;;;;;;;;;;;;;;;;;;6187042;23;19912;-80
2023/01/15 04:15:46;;;;;;;;;;;;;;;;;;6188510;23;19912;-81
2023/01/15 04:18:12;;;;;;;;;;;;;;;;;;6190099;23;19919;-81
2023/01/15 04:20:38;;;;;;;;;;;;;;;;;;6216165;23;20352;-83
2023/01/15 04:23:03;;;;;;;;;;;;;;;;;;6191731;23;19912;-81
2023/01/15 04:25:29;;;;;;;;;;;;;;;;;;6217840;23;19912;-82
2023/01/15 04:27:55;;;;;;;;;;;;;;;;;;6217496;23;19962;-82
2023/01/15 04:30:20;;;;;;;;;;;;;;;;;;6218453;23;19916;-81
2023/01/15 04:32:46;;;;;;;;;;;;;;;;;;6218879;23;20623;-82
2023/01/15 04:35:12;;;;;;;;;;;;;;;;;;6216815;23;19919;-80
2023/01/15 04:37:37;;;;;;;;;;;;;;;;;;6214852;23;20383;-82
2023/01/15 04:40:03;;;;;;;;;;;;;;;;;;6190310;23;19919;-81
2023/01/15 04:45:13;;;;;;;;;;;;;;;;;;6218260;23;19966;-81
2023/01/15 04:47:39;;;;;;;;;;;;;;;;;;6192511;23;19912;-83
2023/01/15 04:50:05;;;;;;;;;;;;;;;;;;6192007;23;19912;-82
2023/01/15 04:52:30;;;;;;;;;;;;;;;;;;6216620;23;20297;-81
2023/01/15 04:54:56;;;;;;;;;;;;;;;;;;6217396;23;20345;-82
2023/01/15 04:57:22;;;;;;;;;;;;;;;;;;6189394;23;19957;-82
2023/01/15 04:59:47;;;;;;;;;;;;;;;;;;6215425;23;19920;-81
2023/01/15 05:02:13;;;;;;;;;;;;;;;;;;6217491;23;19959;-82
2023/01/15 05:04:39;;;;;;;;;;;;;;;;;;6217664;23;19912;-82
2023/01/15 05:07:05;;;;;;;;;;;;;;;;;;6220510;23;19931;-82
2023/01/15 05:09:30;;;;;;;;;;;;;;;;;;6222678;23;19911;-81
2023/01/15 05:11:56;;;;;;;;;;;;;;;;;;6208570;23;19912;-80
2023/01/15 05:14:22;;;;;;;;;;;;;;;;;;6175720;23;19916;-82
2023/01/15 05:16:47;;;;;;;;;;;;;;;;;;6222905;23;19920;-83
2023/01/15 05:19:13;;;;;;;;;;;;;;;;;;6223782;23;19942;-81
2023/01/15 05:21:39;;;;;;;;;;;;;;;;;;6222396;23;19912;-81
2023/01/15 05:24:07;;;;;;;;;;;;;;;;;;6222172;23;20400;-82
2023/01/15 05:26:33;;;;;;;;;;;;;;;;;;6220480;23;19916;-82
2023/01/15 05:28:58;;;;;;;;;;;;;;;;;;6219401;23;19965;-82
2023/01/15 05:31:24;;;;;;;;;;;;;;;;;;6166170;23;19912;-82
2023/01/15 05:33:50;;;;;;;;;;;;;;;;;;6216382;23;19908;-82
2023/01/15 05:36:16;;;;;;;;;;;;;;;;;;6217968;23;19912;-81
2023/01/15 05:38:41;;;;;;;;;;;;;;;;;;6219755;23;19920;-82
2023/01/15 05:41:52;;;;;;;;;;;;;;;;;;6218075;23;19912;-81
2023/01/15 05:43:53;;;;;;;;;;;;;;;;;;6206305;23;19916;-81
2023/01/15 05:46:18;;;;;;;;;;;;;;;;;;6217259;23;19990;-80
2023/01/15 05:48:44;;;;;;;;;;;;;;;;;;6217298;23;20411;-81
2023/01/15 05:51:10;;;;;;;;;;;;;;;;;;6216612;23;20348;-81
2023/01/15 05:53:36;;;;;;;;;;;;;;;;;;6216671;23;19915;-81
2023/01/15 05:56:02;;;;;;;;;;;;;;;;;;6215503;23;20469;-81
2023/01/15 05:58:27;;;;;;;;;;;;;;;;;;6216519;23;19919;-82
2023/01/15 06:00:53;;;;;;;;;;;;;;;;;;6216755;23;20003;-81
2023/01/15 06:03:19;;;;;;;;;;;;;;;;;;6217852;23;19916;-84
2023/01/15 06:05:45;;;;;;;;;;;;;;;;;;6217670;23;19918;-80
2023/01/15 06:08:11;;;;;;;;;;;;;;;;;;6210624;23;19985;-80
2023/01/15 06:10:36;;;;;;;;;;;;;;;;;;6209965;23;19915;-80
2023/01/15 06:13:02;;;;;;;;;;;;;;;;;;6211837;23;20015;-79
2023/01/15 06:15:27;;;;;;;;;;;;;;;;;;6210802;23;19912;-80
2023/01/15 06:17:53;;;;;;;;;;;;;;;;;;6212224;23;19927;-80
2023/01/15 06:20:19;;;;;;;;;;;;;;;;;;6209400;23;19911;-80
2023/01/15 06:22:45;;;;;;;;;;;;;;;;;;6210727;23;19911;-78
2023/01/15 06:25:10;;;;;;;;;;;;;;;;;;6212165;23;19915;-81
2023/01/15 06:27:36;;;;;;;;;;;;;;;;;;6209675;23;19919;-80
2023/01/15 06:30:02;;;;;;;;;;;;;;;;;;6210807;23;19918;-77
2023/01/15 06:32:28;;;;;;;;;;;;;;;;;;6208949;23;19998;-77
2023/01/15 06:34:54;;;;;;;;;;;;;;;;;;6206665;23;19955;-78
2023/01/15 06:37:20;;;;;;;;;;;;;;;;;;6181954;23;20337;-79
2023/01/15 06:39:46;;;;;;;;;;;;;;;;;;6207145;23;19974;-79
2023/01/15 06:47:40;;;;;;;;;;;;;;;;;;6211375;23;19912;-80
2023/01/15 06:50:06;;;;;;;;;;;;;;;;;;6210941;23;19999;-79
2023/01/15 06:52:32;;;;;;;;;;;;;;;;;;6212058;23;19927;-78
2023/01/15 06:54:58;;;;;;;;;;;;;;;;;;6208050;23;20252;-78
2023/01/15 06:57:23;;;;;;;;;;;;;;;;;;6208279;23;19966;-79
2023/01/15 06:59:49;;;;;;;;;;;;;;;;;;6210090;23;20007;-79
2023/01/15 07:02:16;;;;;;;;;;;;;;;;;;6208678;23;20345;-79
2023/01/15 07:04:42;;;;;;;;;;;;;;;;;;6208298;23;20404;-79
2023/01/15 07:07:08;;;;;;;;;;;;;;;;;;6209604;23;19919;-79
2023/01/15 07:09:34;;;;;;;;;;;;;;;;;;6210884;23;19912;-80
2023/01/15 07:11:59;;;;;;;;;;;;;;;;;;6214053;23;19918;-81
2023/01/15 07:14:26;;;;;;;;;;;;;;;;;;6187977;23;20308;-81
2023/01/15 07:16:52;;;;;;;;;;;;;;;;;;6213702;23;19911;-81
2023/01/15 07:19:18;;;;;;;;;;;;;;;;;;6213189;23;19920;-80
2023/01/15 07:21:44;;;;;;;;;;;;;;;;;;6213713;23;19911;-81
2023/01/15 07:24:09;;;;;;;;;;;;;;;;;;6213222;23;19912;-80
2023/01/15 07:26:35;;;;;;;;;;;;;;;;;;6212615;23;20269;-79
2023/01/15 07:29:01;;;;;;;;;;;;;;;;;;6213220;23;19911;-80
2023/01/15 07:31:26;;;;;;;;;;;;;;;;;;6214120;23;19912;-82
2023/01/15 07:36:34;;;;;;;;;;;;;;;;;;6237342;22;20147;-81
2023/01/15 07:38:59;;;;;;;;;;;;;;;;;;6254917;22;19935;-82
2023/01/15 07:49:47;;;;;;;;;;;;;;;;;;6223318;23;19915;-87
2023/01/15 07:52:12;;;;;;;;;;;;;;;;;;6256120;22;19908;-85
2023/01/15 08:02:58;;;;;;;;;;;;;;;;;;6236333;23;19908;-86
2023/01/15 08:05:24;;;;;;;;;;;;;;;;;;6191779;23;19990;-83
2023/01/15 08:07:49;;;;;;;;;;;;;;;;;;6191158;23;19916;-85
2023/01/15 08:10:15;;;;;;;;;;;;;;;;;;6243552;22;19900;-86
2023/01/15 08:15:25;;;;;;;;;;;;;;;;;;6236074;23;19912;-82
2023/01/15 08:17:51;;;;;;;;;;;;;;;;;;6231333;22;19920;-83
2023/01/15 08:20:17;;;;;;;;;;;;;;;;;;6210146;23;19912;-85
2023/01/15 08:22:43;;;;;;;;;;;;;;;;;;6227107;23;19982;-81
2023/01/15 08:25:09;;;;;;;;;;;;;;;;;;6208114;23;19967;-81
2023/01/15 08:27:34;;;;;;;;;;;;;;;;;;6229948;23;19916;-83
2023/01/15 08:30:00;;;;;;;;;;;;;;;;;;6232479;23;19915;-82
2023/01/15 08:32:25;;;;;;;;;;;;;;;;;;6206288;23;19939;-83
2023/01/15 08:34:51;;;;;;;;;;;;;;;;;;6181150;23;19919;-85
2023/01/15 08:37:17;;;;;;;;;;;;;;;;;;6207362;23;19912;-82
2023/01/15 08:39:42;;;;;;;;;;;;;;;;;;6237074;22;19926;-84
2023/01/15 08:42:08;;;;;;;;;;;;;;;;;;6212010;23;20006;-84
2023/01/15 08:44:34;;;;;;;;;;;;;;;;;;6239103;23;19904;-84
2023/01/15 08:46:59;;;;;;;;;;;;;;;;;;6187699;23;20399;-84
2023/01/15 08:49:25;;;;;;;;;;;;;;;;;;6238050;22;20104;-81
2023/01/15 08:51:51;;;;;;;;;;;;;;;;;;6208548;23;19916;-85
2023/01/15 08:54:17;;;;;;;;;;;;;;;;;;6233272;22;19939;-81
2023/01/15 08:56:43;;;;;;;;;;;;;;;;;;6231068;23;19911;-82
2023/01/15 08:59:09;;;;;;;;;;;;;;;;;;6231589;23;19900;-82
2023/01/15 09:01:35;;;;;;;;;;;;;;;;;;6202150;23;19920;-80
2023/01/15 09:04:01;;;;;;;;;;;;;;;;;;6228042;23;19912;-81
2023/01/15 09:06:26;;;;;;;;;;;;;;;;;;6233971;23;19931;-80
2023/01/15 09:08:52;;;;;;;;;;;;;;;;;;6209736;22;19922;-84
2023/01/15 09:11:18;;;;;;;;;;;;;;;;;;6227434;23;19912;-80
2023/01/15 09:13:45;;;;;;;;;;;;;;;;;;6230539;23;20696;-79
2023/01/15 09:16:11;;;;;;;;;;;;;;;;;;6221267;22;19962;-84
2023/01/15 09:18:37;;;;;;;;;;;;;;;;;;6203581;22;19924;-84
2023/01/15 09:21:03;;;;;;;;;;;;;;;;;;6233321;23;19959;-82
2023/01/15 09:23:29;;;;;;;;;;;;;;;;;;6232913;22;19904;-83
2023/01/15 09:25:55;;;;;;;;;;;;;;;;;;6212880;22;19916;-82
2023/01/15 09:28:20;;;;;;;;;;;;;;;;;;6210474;23;19900;-85
2023/01/15 09:30:46;;;;;;;;;;;;;;;;;;6229065;22;19963;-82
2023/01/15 09:33:13;;;;;;;;;;;;;;;;;;6204489;23;19919;-82
2023/01/15 09:35:38;;;;;;;;;;;;;;;;;;6180488;23;19923;-81
2023/01/15 09:40:47;;;;;;;;;;;;;;;;;;6200036;22;19956;-84
2023/01/15 09:46:01;;;;;;;;;;;;;;;;;;6223302;23;19923;-85
2023/01/15 09:48:26;;;;;;;;;;;;;;;;;;6207016;22;19928;-83
2023/01/15 09:50:52;;;;;;;;;;;;;;;;;;6195972;22;20130;-84
2023/01/15 09:53:18;;;;;;;;;;;;;;;;;;6197875;22;19928;-85
2023/01/15 09:55:44;;;;;;;;;;;;;;;;;;6242906;22;19916;-83
2023/01/15 09:58:09;;;;;;;;;;;;;;;;;;6213738;22;19915;-88
2023/01/15 10:06:13;;;;;;;;;;;;;;;;;;6225731;22;19924;-83
2023/01/15 10:08:39;;;;;;;;;;;;;;;;;;6215686;23;19935;-83
2023/01/15 10:11:05;;;;;;;;;;;;;;;;;;6266722;23;19931;-82
2023/01/15 10:13:31;;;;;;;;;;;;;;;;;;6238058;23;19912;-82
2023/01/15 10:15:56;;;;;;;;;;;;;;;;;;6266114;23;19960;-83
2023/01/15 10:18:22;;;;;;;;;;;;;;;;;;6263331;23;19903;-82
2023/01/15 10:20:50;;;;;;;;;;;;;;;;;;6240336;23;19989;-83
2023/01/15 10:23:16;;;;;;;;;;;;;;;;;;6249711;22;19913;-85
2023/01/15 10:25:42;;;;;;;;;;;;;;;;;;6196582;23;19899;-85
2023/01/15 10:28:08;;;;;;;;;;;;;;;;;;6272467;22;19899;-83
2023/01/15 10:30:35;;;;;;;;;;;;;;;;;;6272377;22;19926;-85
2023/01/15 10:33:01;;;;;;;;;;;;;;;;;;6215926;22;19914;-84
2023/01/15 10:35:27;;;;;;;;;;;;;;;;;;6220775;22;19918;-78
2023/01/15 10:40:36;;;;;;;;;;;;;;;;;;6245504;22;19907;-82
2023/01/15 10:43:02;;;;;;;;;;;;;;;;;;6271169;22;19900;-84
2023/01/15 10:45:28;;;;;;;;;;;;;;;;;;6273797;22;19915;-84
2023/01/15 10:47:54;;;;;;;;;;;;;;;;;;6248843;23;19943;-85
2023/01/15 10:50:20;;;;;;;;;;;;;;;;;;6242744;22;19923;-84
2023/01/15 10:52:46;;;;;;;;;;;;;;;;;;6248722;22;19936;-85
2023/01/15 10:55:12;;;;;;;;;;;;;;;;;;6172179;23;19976;-86
2023/01/15 10:57:38;;;;;;;;;;;;;;;;;;6199937;23;19956;-87
2023/01/15 11:00:04;;;;;;;;;;;;;;;;;;6246632;23;19900;-86
2023/01/15 11:05:05;;;;;;;;;;;;;;;;;;6246584;23;19908;-84
2023/01/15 11:21:08;;;;;;;;;;;;;;;;;;6172998;22;19955;-83
2023/01/15 11:23:34;;;;;;;;;;;;;;;;;;6222232;22;19935;-80
2023/01/15 11:26:00;;;;;;;;;;;;;;;;;;6246770;23;19908;-86
2023/01/15 11:34:05;;;;;;;;;;;;;;;;;;6222251;23;19928;-82
2023/01/15 11:36:30;;;;;;;;;;;;;;;;;;6218343;23;19896;-84
2023/01/15 11:38:56;;;;;;;;;;;;;;;;;;6238441;23;19908;-83
2023/01/15 11:41:22;;;;;;;;;;;;;;;;;;6237406;23;19904;-84
2023/01/15 11:52:02;;;;;;;;;;;;;;;;;;6230298;23;19934;-81
2023/01/15 11:54:28;;;;;;;;;;;;;;;;;;6229830;23;20248;-81
2023/01/15 11:56:53;;;;;;;;;;;;;;;;;;6202831;23;19922;-81
2023/01/15 11:59:19;;;;;;;;;;;;;;;;;;6232109;23;20007;-80
2023/01/15 12:01:45;;;;;;;;;;;;;;;;;;6234838;23;19927;-82
2023/01/15 12:04:11;;;;;;;;;;;;;;;;;;6212703;23;19919;-82
2023/01/15 12:06:37;;;;;;;;;;;;;;;;;;6240769;23;19900;-83
2023/01/15 12:09:02;;;;;;;;;;;;;;;;;;6240693;23;19922;-83
2023/01/15 12:11:28;;;;;;;;;;;;;;;;;;6241054;23;19915;-82
2023/01/15 12:13:54;;;;;;;;;;;;;;;;;;6241333;23;19923;-83
2023/01/15 12:16:20;;;;;;;;;;;;;;;;;;6241737;23;19900;-83
2023/01/15 12:18:45;;;;;;;;;;;;;;;;;;6241637;23;19924;-81
2023/01/15 12:21:11;;;;;;;;;;;;;;;;;;6241127;23;19903;-82
2023/01/15 12:23:37;;;;;;;;;;;;;;;;;;6215397;23;19900;-81
2023/01/15 12:26:02;;;;;;;;;;;;;;;;;;6232101;23;19907;-82
2023/01/15 12:28:28;;;;;;;;;;;;;;;;;;6238431;23;19927;-79
2023/01/15 12:30:54;;;;;;;;;;;;;;;;;;6236441;23;19963;-80
2023/01/15 12:33:20;;;;;;;;;;;;;;;;;;6235913;23;19912;-79
2023/01/15 12:35:45;;;;;;;;;;;;;;;;;;6232153;23;19948;-78
2023/01/15 12:38:11;;;;;;;;;;;;;;;;;;6226845;23;19967;-78
2023/01/15 12:40:37;;;;;;;;;;;;;;;;;;6197436;23;19924;-83
2023/01/15 12:45:47;;;;;;;;;;;;;;;;;;6235366;23;20556;-83
2023/01/15 12:48:12;;;;;;;;;;;;;;;;;;6234790;23;19935;-85
2023/01/15 12:50:38;;;;;;;;;;;;;;;;;;6239222;23;19931;-85
2023/01/15 12:53:04;;;;;;;;;;;;;;;;;;6238253;23;19919;-86
2023/01/15 12:55:29;;;;;;;;;;;;;;;;;;6238097;23;19938;-83
2023/01/15 12:57:55;;;;;;;;;;;;;;;;;;6212859;23;19896;-85
2023/01/15 13:00:21;;;;;;;;;;;;;;;;;;6213266;23;19939;-84
2023/01/15 13:02:47;;;;;;;;;;;;;;;;;;6213281;23;19927;-83
2023/01/15 13:05:12;;;;;;;;;;;;;;;;;;6210793;23;19912;-83
2023/01/15 13:07:38;;;;;;;;;;;;;;;;;;6211017;23;19927;-84
2023/01/15 13:10:06;;;;;;;;;;;;;;;;;;6238592;23;19908;-86
2023/01/15 13:12:32;;;;;;;;;;;;;;;;;;6211325;23;19904;-85
2023/01/15 13:14:57;;;;;;;;;;;;;;;;;;6239248;23;19958;-86
2023/01/15 13:17:23;;;;;;;;;;;;;;;;;;6239852;23;19896;-85
2023/01/15 13:19:49;;;;;;;;;;;;;;;;;;6240143;23;19931;-85
2023/01/15 13:22:14;;;;;;;;;;;;;;;;;;6240267;23;19911;-84
2023/01/15 13:24:40;;;;;;;;;;;;;;;;;;6241782;23;19916;-85
2023/01/15 13:27:06;;;;;;;;;;;;;;;;;;6241347;23;19900;-84
2023/01/15 13:29:31;;;;;;;;;;;;;;;;;;6240761;23;19912;-84
2023/01/15 13:31:57;;;;;;;;;;;;;;;;;;6240347;23;19951;-83
2023/01/15 13:34:23;;;;;;;;;;;;;;;;;;6189807;23;19900;-84
2023/01/15 13:36:48;;;;;;;;;;;;;;;;;;6213439;23;19904;-82
2023/01/15 13:39:14;;;;;;;;;;;;;;;;;;6213456;23;19919;-86
2023/01/15 13:44:24;;;;;;;;;;;;;;;;;;6213098;23;19923;-85
2023/01/15 13:46:50;;;;;;;;;;;;;;;;;;6208873;23;19960;-85
2023/01/15 13:49:16;;;;;;;;;;;;;;;;;;6235236;23;19923;-85
2023/01/15 13:51:43;;;;;;;;;;;;;;;;;;6235343;23;19954;-85
2023/01/15 13:54:09;;;;;;;;;;;;;;;;;;6209073;23;19910;-86
2023/01/15 13:56:35;;;;;;;;;;;;;;;;;;6236506;23;19941;-85
2023/01/15 13:59:01;;;;;;;;;;;;;;;;;;6238732;23;19955;-85
2023/01/15 14:01:27;;;;;;;;;;;;;;;;;;6240470;23;19892;-84
2023/01/15 14:03:52;;;;;;;;;;;;;;;;;;6240632;23;19912;-84
2023/01/15 14:06:18;;;;;;;;;;;;;;;;;;6241322;23;19920;-84
2023/01/15 14:08:44;;;;;;;;;;;;;;;;;;6242585;23;19918;-84
2023/01/15 14:11:09;;;;;;;;;;;;;;;;;;6242647;23;19903;-85
2023/01/15 14:13:35;;;;;;;;;;;;;;;;;;6242396;23;19924;-83
2023/01/15 14:16:01;;;;;;;;;;;;;;;;;;6242119;23;19948;-84
2023/01/15 14:18:27;;;;;;;;;;;;;;;;;;6191300;23;19959;-83
2023/01/15 14:20:52;;;;;;;;;;;;;;;;;;6240212;23;19923;-85
2023/01/15 14:23:18;;;;;;;;;;;;;;;;;;6210750;23;19923;-85
2023/01/15 14:25:44;;;;;;;;;;;;;;;;;;6235490;23;19998;-85
2023/01/15 14:28:09;;;;;;;;;;;;;;;;;;6237981;23;19915;-84
2023/01/15 14:30:35;;;;;;;;;;;;;;;;;;6238227;23;19912;-85
2023/01/15 14:33:01;;;;;;;;;;;;;;;;;;6241269;23;19912;-86
2023/01/15 14:35:27;;;;;;;;;;;;;;;;;;6241019;23;19922;-83
2023/01/15 14:37:53;;;;;;;;;;;;;;;;;;6239117;23;19926;-85
2023/01/15 14:40:19;;;;;;;;;;;;;;;;;;6239870;23;19924;-85
2023/01/15 14:43:00;;;;;;;;;;;;;;;;;;6240370;23;19896;-85
2023/01/15 14:45:25;;;;;;;;;;;;;;;;;;6191856;23;19900;-83
2023/01/15 14:47:51;;;;;;;;;;;;;;;;;;6240873;23;19931;-84
2023/01/15 14:50:17;;;;;;;;;;;;;;;;;;6215704;23;19896;-84
2023/01/15 14:52:43;;;;;;;;;;;;;;;;;;6241172;23;19939;-86
2023/01/15 14:55:08;;;;;;;;;;;;;;;;;;6235926;23;19923;-84
2023/01/15 14:57:34;;;;;;;;;;;;;;;;;;6238976;23;19916;-83
2023/01/15 15:00:02;;;;;;;;;;;;;;;;;;6234802;23;19920;-84
2023/01/15 15:02:30;;;;;;;;;;;;;;;;;;6238384;23;19904;-85
2023/01/15 15:04:55;;;;;;;;;;;;;;;;;;6236795;23;19939;-83
2023/01/15 15:07:21;;;;;;;;;;;;;;;;;;6230924;23;19912;-80
2023/01/15 15:09:47;;;;;;;;;;;;;;;;;;6193979;23;19912;-84
2023/01/15 15:12:18;;;;;;;;;;;;;;;;;;6226745;23;19916;-83
2023/01/15 15:14:44;;;;;;;;;;;;;;;;;;6219897;23;19919;-83
2023/01/15 15:17:10;;;;;;;;;;;;;;;;;;6227581;23;19912;-78
2023/01/15 15:19:35;;;;;;;;;;;;;;;;;;6212928;23;20019;-83
2023/01/15 15:24:50;;;;;;;;;;;;;;;;;;6210669;23;19923;-85
2023/01/15 15:27:16;;;;;;;;;;;;;;;;;;6235202;23;19916;-84
2023/01/15 15:32:10;;;;;;;;;;;;;;;;;;6152833;23;19956;-84
2023/01/15 15:37:18;;;;;;;;;;;;;;;;;;6208688;22;19927;-79
2023/01/15 15:39:43;;;;;;;;;;;;;;;;;;6209543;23;20007;-80
2023/01/15 15:50:38;;;;;;;;;;;;;;;;;;6261836;23;19962;-81
2023/01/15 15:53:05;;;;;;;;;;;;;;;;;;6232932;23;19911;-81
2023/01/15 15:55:31;;;;;;;;;;;;;;;;;;6253499;23;19947;-81
2023/01/15 15:57:56;;;;;;;;;;;;;;;;;;6228788;23;19923;-80
2023/01/15 16:00:22;;;;;;;;;;;;;;;;;;6259498;23;20268;-82
2023/01/15 16:02:48;;;;;;;;;;;;;;;;;;6250169;23;19973;-80
2023/01/15 16:05:13;;;;;;;;;;;;;;;;;;6249132;23;19911;-79
2023/01/15 16:07:39;;;;;;;;;;;;;;;;;;6255541;23;19989;-80
2023/01/15 16:10:05;;;;;;;;;;;;;;;;;;6257253;23;19903;-80
2023/01/15 16:12:31;;;;;;;;;;;;;;;;;;6258023;22;19951;-81
2023/01/15 16:14:57;;;;;;;;;;;;;;;;;;6251595;23;19951;-76
2023/01/15 16:17:24;;;;;;;;;;;;;;;;;;6251414;23;19915;-78
2023/01/15 16:19:49;;;;;;;;;;;;;;;;;;6243470;23;20011;-81
2023/01/15 16:22:15;;;;;;;;;;;;;;;;;;6250392;23;19911;-80
2023/01/15 16:24:41;;;;;;;;;;;;;;;;;;6218339;23;19965;-78
2023/01/15 16:27:11;;;;;;;;;;;;;;;;;;6227197;23;19941;-76
2023/01/15 16:29:37;;;;;;;;;;;;;;;;;;6259153;22;19950;-80
2023/01/15 16:32:03;;;;;;;;;;;;;;;;;;6228526;23;20234;-79
2023/01/15 16:34:29;;;;;;;;;;;;;;;;;;6258392;23;19907;-81
2023/01/15 16:36:55;;;;;;;;;;;;;;;;;;6256233;23;19962;-82
2023/01/15 16:39:20;;;;;;;;;;;;;;;;;;6260537;22;19924;-82
2023/01/15 16:41:46;;;;;;;;;;;;;;;;;;6224892;23;19931;-80
2023/01/15 16:44:12;;;;;;;;;;;;;;;;;;6225543;23;19912;-80
2023/01/15 16:46:37;;;;;;;;;;;;;;;;;;6219156;23;19926;-79
2023/01/15 16:49:03;;;;;;;;;;;;;;;;;;6241662;23;19911;-80
2023/01/15 16:51:29;;;;;;;;;;;;;;;;;;6214894;23;20687;-79
2023/01/15 16:53:55;;;;;;;;;;;;;;;;;;6241964;23;19915;-75
2023/01/15 16:56:21;;;;;;;;;;;;;;;;;;6243927;23;19958;-80
2023/01/15 16:58:47;;;;;;;;;;;;;;;;;;6244577;23;19926;-76
2023/01/15 17:01:12;;;;;;;;;;;;;;;;;;6218907;23;19911;-78
2023/01/15 17:03:38;;;;;;;;;;;;;;;;;;6244106;23;19918;-77
2023/01/15 17:06:04;;;;;;;;;;;;;;;;;;6256459;23;19912;-81
2023/01/15 17:08:30;;;;;;;;;;;;;;;;;;6258491;23;19915;-83
2023/01/15 17:10:55;;;;;;;;;;;;;;;;;;6261592;23;19937;-81
2023/01/15 17:13:21;;;;;;;;;;;;;;;;;;6241984;22;20001;-81
2023/01/15 17:15:47;;;;;;;;;;;;;;;;;;6227093;22;19952;-80
2023/01/15 17:18:13;;;;;;;;;;;;;;;;;;6253931;23;19919;-81
2023/01/15 17:20:38;;;;;;;;;;;;;;;;;;6231547;23;19918;-81
2023/01/15 17:23:04;;;;;;;;;;;;;;;;;;6221510;23;19938;-79
2023/01/15 17:25:30;;;;;;;;;;;;;;;;;;6242373;23;19912;-84
2023/01/15 17:27:56;;;;;;;;;;;;;;;;;;6244939;23;19958;-79
2023/01/15 17:30:25;;;;;;;;;;;;;;;;;;6247266;23;19912;-82
2023/01/15 17:32:50;;;;;;;;;;;;;;;;;;6226232;23;19915;-79
2023/01/15 17:35:16;;;;;;;;;;;;;;;;;;6259128;23;19922;-83
2023/01/15 17:37:41;;;;;;;;;;;;;;;;;;6261836;23;19915;-83
2023/01/15 17:40:07;;;;;;;;;;;;;;;;;;6257826;23;19926;-81
2023/01/15 17:42:33;;;;;;;;;;;;;;;;;;6255241;23;19912;-83
2023/01/15 17:44:58;;;;;;;;;;;;;;;;;;6230012;23;19931;-83
2023/01/15 17:47:24;;;;;;;;;;;;;;;;;;6207762;23;19955;-83
2023/01/15 17:49:50;;;;;;;;;;;;;;;;;;6233008;23;19911;-82
2023/01/15 17:52:15;;;;;;;;;;;;;;;;;;6257370;23;19942;-82
2023/01/15 18:05:39;;;;;;;;;;;;;;;;;;6263120;23;19922;-81
2023/01/15 18:08:05;;;;;;;;;;;;;;;;;;6264266;23;19911;-82
2023/01/15 18:10:31;;;;;;;;;;;;;;;;;;6207359;23;19916;-83
2023/01/15 18:12:57;;;;;;;;;;;;;;;;;;6270100;23;19933;-85
2023/01/15 18:15:23;;;;;;;;;;;;;;;;;;6265429;23;19912;-81
2023/01/15 18:50:14;;;;;;;;;;;;;;;;;;6199013;22;19903;-85
2023/01/15 18:52:49;;;;;;;;;;;;;;;;;;6227782;22;19910;-86
2023/01/15 18:55:15;;;;;;;;;;;;;;;;;;6254243;23;20341;-83
2023/01/15 18:57:41;;;;;;;;;;;;;;;;;;6254378;23;19994;-83
2023/01/15 19:00:06;;;;;;;;;;;;;;;;;;6258674;23;19942;-81